sensor_id;sensor_type;location;lat;lon;timestamp;pressure;altitude;pressure_sealevel;temperature;humidity
46464;BME280;32161;48.148;-1.554;2023-04-03T00:01:07;102147.97;;;7.20;79.90
46464;BME280;32161;48.148;-1.554;2023-04-03T00:03:34;102143.59;;;7.19;79.66
46464;BME280;32161;48.148;-1.554;2023-04-03T00:06:04;102147.13;;;7.19;80.08
46464;BME280;32161;48.148;-1.554;2023-04-03T00:08:33;102151.53;;;7.12;79.54
46464;BME280;32161;48.148;-1.554;2023-04-03T00:11:01;102149.00;;;7.02;79.34
46464;BME280;32161;48.148;-1.554;2023-04-03T00:13:29;102141.09;;;7.01;79.03
46464;BME280;32161;48.148;-1.554;2023-04-03T00:15:57;102138.22;;;6.94;78.72
46464;BME280;32161;48.148;-1.554;2023-04-03T00:18:25;102148.72;;;6.89;78.56
46464;BME280;32161;48.148;-1.554;2023-04-03T00:20:52;102146.53;;;6.84;79.02
46464;BME280;32161;48.148;-1.554;2023-04-03T00:23:21;102146.03;;;6.81;79.73
46464;BME280;32161;48.148;-1.554;2023-04-03T00:25:49;102146.69;;;6.75;79.85
46464;BME280;32161;48.148;-1.554;2023-04-03T00:28:17;102139.75;;;6.72;80.23
46464;BME280;32161;48.148;-1.554;2023-04-03T00:30:45;102138.94;;;6.72;81.04
46464;BME280;32161;48.148;-1.554;2023-04-03T00:33:13;102147.38;;;6.69;81.07
46464;BME280;32161;48.148;-1.554;2023-04-03T00:35:41;102135.41;;;6.63;81.35
46464;BME280;32161;48.148;-1.554;2023-04-03T00:38:09;102131.16;;;6.60;81.19
46464;BME280;32161;48.148;-1.554;2023-04-03T00:40:42;102135.91;;;6.58;81.17
46464;BME280;32161;48.148;-1.554;2023-04-03T00:43:13;102140.81;;;6.55;81.17
46464;BME280;32161;48.148;-1.554;2023-04-03T00:45:43;102144.53;;;6.54;81.32
46464;BME280;32161;48.148;-1.554;2023-04-03T00:48:15;102147.38;;;6.52;81.33
46464;BME280;32161;48.148;-1.554;2023-04-03T00:50:43;102156.84;;;6.48;82.32
46464;BME280;32161;48.148;-1.554;2023-04-03T00:53:16;102148.22;;;6.53;81.52
46464;BME280;32161;48.148;-1.554;2023-04-03T00:55:48;102148.72;;;6.48;80.68
46464;BME280;32161;48.148;-1.554;2023-04-03T00:58:18;102146.38;;;6.45;80.88
46464;BME280;32161;48.148;-1.554;2023-04-03T01:00:52;102145.38;;;6.46;80.40
46464;BME280;32161;48.148;-1.554;2023-04-03T01:03:23;102131.88;;;6.46;80.37
46464;BME280;32161;48.148;-1.554;2023-04-03T01:05:51;102134.56;;;6.46;80.37
46464;BME280;32161;48.148;-1.554;2023-04-03T01:08:18;102125.78;;;6.44;79.94
46464;BME280;32161;48.148;-1.554;2023-04-03T01:10:47;102125.13;;;6.42;79.76
46464;BME280;32161;48.148;-1.554;2023-04-03T01:13:23;102131.19;;;6.44;79.90
46464;BME280;32161;48.148;-1.554;2023-04-03T01:15:51;102124.09;;;6.43;79.13
46464;BME280;32161;48.148;-1.554;2023-04-03T01:18:19;102125.28;;;6.41;79.20
46464;BME280;32161;48.148;-1.554;2023-04-03T01:24:32;102121.03;;;6.30;80.14
46464;BME280;32161;48.148;-1.554;2023-04-03T01:27:06;102119.88;;;6.24;82.15
46464;BME280;32161;48.148;-1.554;2023-04-03T01:29:35;102112.63;;;6.25;82.05
46464;BME280;32161;48.148;-1.554;2023-04-03T01:32:04;102116.00;;;6.27;82.16
46464;BME280;32161;48.148;-1.554;2023-04-03T01:34:32;102116.84;;;6.27;81.35
46464;BME280;32161;48.148;-1.554;2023-04-03T01:37:00;102107.53;;;6.30;81.03
46464;BME280;32161;48.148;-1.554;2023-04-03T01:39:27;102100.47;;;6.29;81.19
46464;BME280;32161;48.148;-1.554;2023-04-03T01:41:55;102106.69;;;6.29;80.62
46464;BME280;32161;48.148;-1.554;2023-04-03T01:44:23;102094.22;;;6.28;80.19
46464;BME280;32161;48.148;-1.554;2023-04-03T01:46:50;102101.47;;;6.28;79.82
46464;BME280;32161;48.148;-1.554;2023-04-03T01:49:19;102095.25;;;6.27;80.29
46464;BME280;32161;48.148;-1.554;2023-04-03T01:51:47;102094.41;;;6.27;80.72
46464;BME280;32161;48.148;-1.554;2023-04-03T01:54:14;102101.47;;;6.11;81.54
46464;BME280;32161;48.148;-1.554;2023-04-03T01:56:42;102100.47;;;6.04;82.37
46464;BME280;32161;48.148;-1.554;2023-04-03T01:59:10;102095.06;;;6.04;82.57
46464;BME280;32161;48.148;-1.554;2023-04-03T02:01:37;102094.53;;;6.01;82.30
46464;BME280;32161;48.148;-1.554;2023-04-03T02:04:05;102087.94;;;6.03;83.11
46464;BME280;32161;48.148;-1.554;2023-04-03T02:06:34;102084.25;;;6.04;83.21
46464;BME280;32161;48.148;-1.554;2023-04-03T02:09:02;102081.88;;;6.01;83.88
46464;BME280;32161;48.148;-1.554;2023-04-03T02:11:30;102081.88;;;6.01;83.56
46464;BME280;32161;48.148;-1.554;2023-04-03T02:13:58;102081.72;;;6.03;83.70
46464;BME280;32161;48.148;-1.554;2023-04-03T02:16:25;102081.88;;;6.01;83.50
46464;BME280;32161;48.148;-1.554;2023-04-03T02:18:54;102073.09;;;5.99;83.11
46464;BME280;32161;48.148;-1.554;2023-04-03T02:21:22;102083.25;;;5.97;82.94
46464;BME280;32161;48.148;-1.554;2023-04-03T02:23:51;102079.53;;;5.98;82.63
46464;BME280;32161;48.148;-1.554;2023-04-03T02:26:19;102085.25;;;5.95;82.93
46464;BME280;32161;48.148;-1.554;2023-04-03T02:28:47;102080.22;;;5.92;82.97
46464;BME280;32161;48.148;-1.554;2023-04-03T02:31:15;102075.75;;;5.91;82.90
46464;BME280;32161;48.148;-1.554;2023-04-03T02:33:42;102087.75;;;5.88;82.31
46464;BME280;32161;48.148;-1.554;2023-04-03T02:36:10;102088.13;;;5.94;83.35
46464;BME280;32161;48.148;-1.554;2023-04-03T02:38:38;102078.97;;;5.86;83.18
46464;BME280;32161;48.148;-1.554;2023-04-03T02:41:09;102084.53;;;5.85;83.56
46464;BME280;32161;48.148;-1.554;2023-04-03T02:43:37;102079.16;;;5.85;82.89
46464;BME280;32161;48.148;-1.554;2023-04-03T02:46:06;102079.16;;;5.85;83.03
46464;BME280;32161;48.148;-1.554;2023-04-03T02:48:33;102077.44;;;5.84;83.09
46464;BME280;32161;48.148;-1.554;2023-04-03T02:51:01;102073.38;;;5.80;83.56
46464;BME280;32161;48.148;-1.554;2023-04-03T02:53:29;102083.19;;;5.73;83.68
46464;BME280;32161;48.148;-1.554;2023-04-03T02:55:56;102075.56;;;5.68;83.82
46464;BME280;32161;48.148;-1.554;2023-04-03T02:58:25;102078.25;;;5.68;83.05
46464;BME280;32161;48.148;-1.554;2023-04-03T03:00:54;102077.09;;;5.71;82.98
46464;BME280;32161;48.148;-1.554;2023-04-03T03:03:21;102070.34;;;5.75;83.09
46464;BME280;32161;48.148;-1.554;2023-04-03T03:05:49;102076.75;;;5.66;84.30
46464;BME280;32161;48.148;-1.554;2023-04-03T03:08:17;102072.19;;;5.66;84.05
46464;BME280;32161;48.148;-1.554;2023-04-03T03:10:46;102070.69;;;5.72;83.61
46464;BME280;32161;48.148;-1.554;2023-04-03T03:13:13;102068.66;;;5.66;83.52
46464;BME280;32161;48.148;-1.554;2023-04-03T03:15:42;102073.22;;;5.65;83.44
46464;BME280;32161;48.148;-1.554;2023-04-03T03:18:10;102067.44;;;5.60;83.21
46464;BME280;32161;48.148;-1.554;2023-04-03T03:20:38;102078.56;;;5.57;83.61
46464;BME280;32161;48.148;-1.554;2023-04-03T03:23:05;102078.03;;;5.53;83.91
46464;BME280;32161;48.148;-1.554;2023-04-03T03:25:33;102077.06;;;5.54;83.33
46464;BME280;32161;48.148;-1.554;2023-04-03T03:28:00;102074.88;;;5.50;82.86
46464;BME280;32161;48.148;-1.554;2023-04-03T03:30:28;102077.03;;;5.46;82.53
46464;BME280;32161;48.148;-1.554;2023-04-03T03:32:57;102070.28;;;5.42;81.22
46464;BME280;32161;48.148;-1.554;2023-04-03T03:35:25;102073.47;;;5.46;81.01
46464;BME280;32161;48.148;-1.554;2023-04-03T03:37:52;102074.81;;;5.42;81.54
46464;BME280;32161;48.148;-1.554;2023-04-03T03:40:20;102071.09;;;5.34;81.28
46464;BME280;32161;48.148;-1.554;2023-04-03T03:42:48;102077.13;;;5.28;80.67
46464;BME280;32161;48.148;-1.554;2023-04-03T03:45:15;102074.94;;;5.24;80.51
46464;BME280;32161;48.148;-1.554;2023-04-03T03:47:43;102073.88;;;5.17;81.16
46464;BME280;32161;48.148;-1.554;2023-04-03T03:50:13;102065.09;;;5.14;80.57
46464;BME280;32161;48.148;-1.554;2023-04-03T03:52:40;102066.81;;;5.16;80.37
46464;BME280;32161;48.148;-1.554;2023-04-03T03:55:08;102062.41;;;5.14;80.40
46464;BME280;32161;48.148;-1.554;2023-04-03T03:57:36;102065.47;;;5.11;80.63
46464;BME280;32161;48.148;-1.554;2023-04-03T04:00:05;102061.03;;;5.10;79.81
46464;BME280;32161;48.148;-1.554;2023-04-03T04:02:34;102066.41;;;5.02;79.49
46464;BME280;32161;48.148;-1.554;2023-04-03T04:05:03;102068.75;;;4.97;79.23
46464;BME280;32161;48.148;-1.554;2023-04-03T04:07:32;102074.63;;;4.93;79.64
46464;BME280;32161;48.148;-1.554;2023-04-03T04:09:59;102072.56;;;4.86;79.35
46464;BME280;32161;48.148;-1.554;2023-04-03T04:12:27;102077.59;;;4.81;80.07
46464;BME280;32161;48.148;-1.554;2023-04-03T04:14:54;102077.06;;;4.78;79.71
46464;BME280;32161;48.148;-1.554;2023-04-03T04:17:22;102070.97;;;4.76;79.91
46464;BME280;32161;48.148;-1.554;2023-04-03T04:19:50;102076.34;;;4.76;80.01
46464;BME280;32161;48.148;-1.554;2023-04-03T04:22:17;102072.16;;;4.73;79.71
46464;BME280;32161;48.148;-1.554;2023-04-03T04:24:46;102077.84;;;4.70;80.26
46464;BME280;32161;48.148;-1.554;2023-04-03T04:27:14;102081.69;;;4.68;79.42
46464;BME280;32161;48.148;-1.554;2023-04-03T04:29:42;102080.88;;;4.67;79.65
46464;BME280;32161;48.148;-1.554;2023-04-03T04:32:09;102088.41;;;4.63;79.40
46464;BME280;32161;48.148;-1.554;2023-04-03T04:34:37;102077.63;;;4.63;79.08
46464;BME280;32161;48.148;-1.554;2023-04-03T04:37:04;102083.34;;;4.60;79.43
46464;BME280;32161;48.148;-1.554;2023-04-03T04:39:32;102077.94;;;4.60;80.38
46464;BME280;32161;48.148;-1.554;2023-04-03T04:42:02;102088.19;;;4.57;80.84
46464;BME280;32161;48.148;-1.554;2023-04-03T04:44:29;102077.41;;;4.57;80.87
46464;BME280;32161;48.148;-1.554;2023-04-03T04:46:57;102073.88;;;4.56;80.99
46464;BME280;32161;48.148;-1.554;2023-04-03T04:49:25;102078.28;;;4.57;81.94
46464;BME280;32161;48.148;-1.554;2023-04-03T04:51:52;102076.03;;;4.53;82.52
46464;BME280;32161;48.148;-1.554;2023-04-03T04:54:20;102073.22;;;4.54;82.52
46464;BME280;32161;48.148;-1.554;2023-04-03T04:56:47;102075.19;;;4.52;82.88
46464;BME280;32161;48.148;-1.554;2023-04-03T04:59:17;102074.91;;;4.55;83.33
46464;BME280;32161;48.148;-1.554;2023-04-03T05:01:44;102070.00;;;4.51;83.25
46464;BME280;32161;48.148;-1.554;2023-04-03T05:04:12;102067.97;;;4.53;83.66
46464;BME280;32161;48.148;-1.554;2023-04-03T05:06:39;102077.75;;;4.54;83.37
46464;BME280;32161;48.148;-1.554;2023-04-03T05:09:07;102074.19;;;4.53;83.55
46464;BME280;32161;48.148;-1.554;2023-04-03T05:11:36;102074.19;;;4.53;83.24
46464;BME280;32161;48.148;-1.554;2023-04-03T05:14:03;102072.19;;;4.55;83.77
46464;BME280;32161;48.148;-1.554;2023-04-03T05:16:34;102079.31;;;4.64;83.62
46464;BME280;32161;48.148;-1.554;2023-04-03T05:19:02;102079.50;;;4.63;83.89
46464;BME280;32161;48.148;-1.554;2023-04-03T05:21:30;102081.34;;;4.62;83.57
46464;BME280;32161;48.148;-1.554;2023-04-03T05:23:58;102078.47;;;4.64;84.51
46464;BME280;32161;48.148;-1.554;2023-04-03T05:26:29;102080.69;;;4.69;84.39
46464;BME280;32161;48.148;-1.554;2023-04-03T05:28:56;102080.06;;;4.75;84.45
46464;BME280;32161;48.148;-1.554;2023-04-03T05:31:24;102079.75;;;4.78;84.06
46464;BME280;32161;48.148;-1.554;2023-04-03T05:33:53;102077.72;;;4.80;84.38
46464;BME280;32161;48.148;-1.554;2023-04-03T05:36:21;102077.09;;;4.86;84.46
46464;BME280;32161;48.148;-1.554;2023-04-03T05:38:49;102077.94;;;4.86;83.99
46464;BME280;32161;48.148;-1.554;2023-04-03T05:41:16;102080.16;;;4.91;83.52
46464;BME280;32161;48.148;-1.554;2023-04-03T05:43:44;102068.03;;;4.95;83.48
46464;BME280;32161;48.148;-1.554;2023-04-03T05:46:12;102069.59;;;4.98;83.94
46464;BME280;32161;48.148;-1.554;2023-04-03T05:48:40;102065.88;;;4.99;84.00
46464;BME280;32161;48.148;-1.554;2023-04-03T05:51:15;102062.19;;;5.00;84.31
46464;BME280;32161;48.148;-1.554;2023-04-03T05:53:44;102056.00;;;5.07;84.38
46464;BME280;32161;48.148;-1.554;2023-04-03T05:56:12;102061.41;;;5.07;84.26
46464;BME280;32161;48.148;-1.554;2023-04-03T05:58:40;102058.72;;;5.16;83.63
46464;BME280;32161;48.148;-1.554;2023-04-03T06:01:07;102064.44;;;5.12;83.85
46464;BME280;32161;48.148;-1.554;2023-04-03T06:03:35;102061.56;;;5.14;83.79
46464;BME280;32161;48.148;-1.554;2023-04-03T06:06:04;102064.25;;;5.14;83.31
46464;BME280;32161;48.148;-1.554;2023-04-03T06:08:33;102059.72;;;5.14;83.65
46464;BME280;32161;48.148;-1.554;2023-04-03T06:11:01;102057.72;;;5.17;83.41
46464;BME280;32161;48.148;-1.554;2023-04-03T06:13:29;102056.06;;;5.24;83.50
46464;BME280;32161;48.148;-1.554;2023-04-03T06:15:57;102065.00;;;5.24;83.76
46464;BME280;32161;48.148;-1.554;2023-04-03T06:18:25;102052.34;;;5.25;84.31
46464;BME280;32161;48.148;-1.554;2023-04-03T06:20:52;102066.84;;;5.24;84.05
46464;BME280;32161;48.148;-1.554;2023-04-03T06:23:20;102053.03;;;5.27;83.99
46464;BME280;32161;48.148;-1.554;2023-04-03T06:25:49;102047.66;;;5.27;82.98
46464;BME280;32161;48.148;-1.554;2023-04-03T06:28:17;102046.75;;;5.18;82.37
46464;BME280;32161;48.148;-1.554;2023-04-03T06:30:45;102044.59;;;5.22;82.44
46464;BME280;32161;48.148;-1.554;2023-04-03T06:33:13;102051.53;;;5.32;82.85
46464;BME280;32161;48.148;-1.554;2023-04-03T06:35:40;102059.13;;;5.37;82.39
46464;BME280;32161;48.148;-1.554;2023-04-03T06:38:08;102064.91;;;5.42;82.55
46464;BME280;32161;48.148;-1.554;2023-04-03T06:40:36;102052.91;;;5.45;82.17
46464;BME280;32161;48.148;-1.554;2023-04-03T06:43:05;102049.19;;;5.46;81.88
46464;BME280;32161;48.148;-1.554;2023-04-03T06:45:33;102059.16;;;5.53;81.72
46464;BME280;32161;48.148;-1.554;2023-04-03T06:48:02;102061.03;;;5.53;81.36
46464;BME280;32161;48.148;-1.554;2023-04-03T06:50:30;102056.97;;;5.57;80.57
46464;BME280;32161;48.148;-1.554;2023-04-03T06:52:57;102065.06;;;5.57;80.69
46464;BME280;32161;48.148;-1.554;2023-04-03T06:55:25;102070.66;;;5.63;81.90
46464;BME280;32161;48.148;-1.554;2023-04-03T06:57:52;102072.84;;;5.68;81.96
46464;BME280;32161;48.148;-1.554;2023-04-03T07:00:22;102077.59;;;5.74;82.92
46464;BME280;32161;48.148;-1.554;2023-04-03T07:02:49;102074.41;;;5.79;82.52
46464;BME280;32161;48.148;-1.554;2023-04-03T07:05:17;102074.41;;;5.87;81.76
46464;BME280;32161;48.148;-1.554;2023-04-03T07:07:45;102078.31;;;5.84;81.97
46464;BME280;32161;48.148;-1.554;2023-04-03T07:10:13;102075.09;;;5.89;81.36
46464;BME280;32161;48.148;-1.554;2023-04-03T07:12:40;102079.84;;;5.95;80.77
46464;BME280;32161;48.148;-1.554;2023-04-03T07:15:09;102081.88;;;6.01;79.36
46464;BME280;32161;48.148;-1.554;2023-04-03T07:17:39;102076.31;;;6.03;79.63
46464;BME280;32161;48.148;-1.554;2023-04-03T07:20:08;102072.63;;;6.12;78.63
46464;BME280;32161;48.148;-1.554;2023-04-03T07:22:36;102069.75;;;6.05;78.75
46464;BME280;32161;48.148;-1.554;2023-04-03T07:25:05;102067.75;;;6.07;78.29
46464;BME280;32161;48.148;-1.554;2023-04-03T07:27:33;102062.66;;;6.04;78.76
46464;BME280;32161;48.148;-1.554;2023-04-03T07:30:02;102064.84;;;6.17;77.26
46464;BME280;32161;48.148;-1.554;2023-04-03T07:32:29;102065.88;;;6.08;76.98
46464;BME280;32161;48.148;-1.554;2023-04-03T07:34:58;102051.19;;;6.10;78.38
46464;BME280;32161;48.148;-1.554;2023-04-03T07:37:26;102060.47;;;6.00;76.47
46464;BME280;32161;48.148;-1.554;2023-04-03T07:39:54;102054.25;;;6.07;77.45
46464;BME280;32161;48.148;-1.554;2023-04-03T07:42:23;102058.78;;;6.07;77.38
46464;BME280;32161;48.148;-1.554;2023-04-03T07:44:50;102050.16;;;6.03;78.64
46464;BME280;32161;48.148;-1.554;2023-04-03T07:47:18;102057.41;;;6.11;79.59
46464;BME280;32161;48.148;-1.554;2023-04-03T07:49:46;102059.97;;;6.13;79.75
46464;BME280;32161;48.148;-1.554;2023-04-03T07:52:15;102056.94;;;6.24;78.87
46464;BME280;32161;48.148;-1.554;2023-04-03T07:54:43;102072.13;;;6.25;79.14
46464;BME280;32161;48.148;-1.554;2023-04-03T07:57:11;102060.66;;;6.31;78.89
46464;BME280;32161;48.148;-1.554;2023-04-03T07:59:38;102059.63;;;6.32;79.43
46464;BME280;32161;48.148;-1.554;2023-04-03T08:02:09;102053.56;;;6.38;78.84
46464;BME280;32161;48.148;-1.554;2023-04-03T08:04:37;102050.13;;;6.52;77.87
46464;BME280;32161;48.148;-1.554;2023-04-03T08:07:05;102050.63;;;6.56;77.49
46464;BME280;32161;48.148;-1.554;2023-04-03T08:09:34;102059.59;;;6.56;77.00
46464;BME280;32161;48.148;-1.554;2023-04-03T08:12:01;102063.13;;;6.57;78.02
46464;BME280;32161;48.148;-1.554;2023-04-03T08:14:31;102068.06;;;6.53;78.32
46464;BME280;32161;48.148;-1.554;2023-04-03T08:17:00;102071.56;;;6.62;78.86
46464;BME280;32161;48.148;-1.554;2023-04-03T08:19:30;102068.00;;;6.70;79.27
46464;BME280;32161;48.148;-1.554;2023-04-03T08:21:58;102069.00;;;6.69;79.34
46464;BME280;32161;48.148;-1.554;2023-04-03T08:24:28;102064.78;;;6.74;78.55
46464;BME280;32161;48.148;-1.554;2023-04-03T08:26:58;102068.31;;;6.83;78.45
46464;BME280;32161;48.148;-1.554;2023-04-03T08:29:25;102074.72;;;6.90;78.11
46464;BME280;32161;48.148;-1.554;2023-04-03T08:31:53;102074.53;;;6.92;77.22
46464;BME280;32161;48.148;-1.554;2023-04-03T08:34:21;102076.06;;;6.86;76.93
46464;BME280;32161;48.148;-1.554;2023-04-03T08:36:49;102073.09;;;6.73;78.25
46464;BME280;32161;48.148;-1.554;2023-04-03T08:39:17;102079.16;;;6.75;78.72
46464;BME280;32161;48.148;-1.554;2023-04-03T08:41:45;102072.91;;;6.74;79.71
46464;BME280;32161;48.148;-1.554;2023-04-03T08:44:25;102072.03;;;6.82;80.66
46464;BME280;32161;48.148;-1.554;2023-04-03T08:47:11;102067.28;;;6.92;78.99
46464;BME280;32161;48.148;-1.554;2023-04-03T08:49:44;102065.53;;;6.99;78.65
46464;BME280;32161;48.148;-1.554;2023-04-03T08:52:17;102070.63;;;7.02;77.89
46464;BME280;32161;48.148;-1.554;2023-04-03T08:54:51;102071.63;;;7.01;78.58
46464;BME280;32161;48.148;-1.554;2023-04-03T08:57:28;102070.31;;;6.97;78.62
46464;BME280;32161;48.148;-1.554;2023-04-03T09:00:02;102064.72;;;6.99;78.95
46464;BME280;32161;48.148;-1.554;2023-04-03T09:02:34;102067.91;;;7.02;79.45
46464;BME280;32161;48.148;-1.554;2023-04-03T09:05:12;102068.06;;;7.09;79.48
46464;BME280;32161;48.148;-1.554;2023-04-03T09:07:44;102067.34;;;7.23;78.87
46464;BME280;32161;48.148;-1.554;2023-04-03T09:10:15;102062.09;;;7.22;77.56
46464;BME280;32161;48.148;-1.554;2023-04-03T09:12:53;102058.31;;;7.00;78.62
46464;BME280;32161;48.148;-1.554;2023-04-03T09:15:26;102058.59;;;7.13;78.15
46464;BME280;32161;48.148;-1.554;2023-04-03T09:18:02;102059.75;;;7.10;78.95
46464;BME280;32161;48.148;-1.554;2023-04-03T09:20:42;102054.50;;;7.17;80.00
46464;BME280;32161;48.148;-1.554;2023-04-03T09:23:20;102054.97;;;7.29;79.14
46464;BME280;32161;48.148;-1.554;2023-04-03T09:25:52;102049.00;;;7.33;78.22
46464;BME280;32161;48.148;-1.554;2023-04-03T09:28:21;102053.09;;;7.29;78.31
46464;BME280;32161;48.148;-1.554;2023-04-03T09:30:50;102049.78;;;7.50;76.52
46464;BME280;32161;48.148;-1.554;2023-04-03T09:33:18;102051.56;;;7.35;77.73
46464;BME280;32161;48.148;-1.554;2023-04-03T09:35:48;102037.34;;;7.33;78.16
46464;BME280;32161;48.148;-1.554;2023-04-03T09:38:19;102046.00;;;7.28;75.69
46464;BME280;32161;48.148;-1.554;2023-04-03T09:40:50;102036.25;;;7.19;77.26
46464;BME280;32161;48.148;-1.554;2023-04-03T09:43:29;102041.28;;;7.22;76.95
46464;BME280;32161;48.148;-1.554;2023-04-03T09:46:21;102030.91;;;7.34;76.42
46464;BME280;32161;48.148;-1.554;2023-04-03T09:49:01;102029.25;;;7.33;78.06
46464;BME280;32161;48.148;-1.554;2023-04-03T09:51:30;102033.75;;;7.41;78.33
46464;BME280;32161;48.148;-1.554;2023-04-03T09:53:58;102033.91;;;7.47;76.76
46464;BME280;32161;48.148;-1.554;2023-04-03T09:56:28;102035.91;;;7.53;77.55
46464;BME280;32161;48.148;-1.554;2023-04-03T09:59:14;102039.06;;;7.65;77.62
46464;BME280;32161;48.148;-1.554;2023-04-03T10:01:59;102030.44;;;7.85;74.95
46464;BME280;32161;48.148;-1.554;2023-04-03T10:04:40;102031.22;;;7.93;75.15
46464;BME280;32161;48.148;-1.554;2023-04-03T10:07:30;102030.63;;;7.83;76.01
46464;BME280;32161;48.148;-1.554;2023-04-03T10:10:00;102037.19;;;7.89;75.51
46464;BME280;32161;48.148;-1.554;2023-04-03T10:12:29;102030.19;;;7.94;75.11
46464;BME280;32161;48.148;-1.554;2023-04-03T10:14:59;102034.22;;;7.98;75.45
46464;BME280;32161;48.148;-1.554;2023-04-03T10:17:37;102034.16;;;8.06;74.97
46464;BME280;32161;48.148;-1.554;2023-04-03T10:20:28;102038.28;;;8.17;74.30
46464;BME280;32161;48.148;-1.554;2023-04-03T10:23:14;102040.22;;;8.31;73.44
46464;BME280;32161;48.148;-1.554;2023-04-03T10:25:52;102037.50;;;8.31;73.86
46464;BME280;32161;48.148;-1.554;2023-04-03T10:28:31;102037.66;;;8.30;72.73
46464;BME280;32161;48.148;-1.554;2023-04-03T10:31:07;102032.56;;;8.35;73.90
46464;BME280;32161;48.148;-1.554;2023-04-03T10:33:52;102021.59;;;8.51;73.16
46464;BME280;32161;48.148;-1.554;2023-04-03T10:36:34;102025.25;;;8.59;71.83
46464;BME280;32161;48.148;-1.554;2023-04-03T10:39:19;102015.16;;;8.67;68.68
46464;BME280;32161;48.148;-1.554;2023-04-03T10:42:02;102007.38;;;8.79;67.94
46464;BME280;32161;48.148;-1.554;2023-04-03T10:44:37;102010.47;;;8.91;68.60
46464;BME280;32161;48.148;-1.554;2023-04-03T10:47:14;102008.41;;;8.78;68.74
46464;BME280;32161;48.148;-1.554;2023-04-03T10:49:56;102007.94;;;8.89;67.90
46464;BME280;32161;48.148;-1.554;2023-04-03T10:52:35;102008.22;;;8.79;67.93
46464;BME280;32161;48.148;-1.554;2023-04-03T10:55:22;101995.13;;;8.83;68.80
46464;BME280;32161;48.148;-1.554;2023-04-03T10:57:54;101990.28;;;8.93;67.92
46464;BME280;32161;48.148;-1.554;2023-04-03T11:00:34;101992.31;;;8.91;68.98
46464;BME280;32161;48.148;-1.554;2023-04-03T11:03:08;101991.38;;;8.99;67.33
46464;BME280;32161;48.148;-1.554;2023-04-03T11:05:43;101994.66;;;8.94;66.60
46464;BME280;32161;48.148;-1.554;2023-04-03T11:08:21;101980.47;;;8.92;67.70
46464;BME280;32161;48.148;-1.554;2023-04-03T11:10:57;101979.56;;;9.07;70.06
46464;BME280;32161;48.148;-1.554;2023-04-03T11:13:32;101975.38;;;9.19;69.85
46464;BME280;32161;48.148;-1.554;2023-04-03T11:16:00;101970.88;;;9.47;67.74
46464;BME280;32161;48.148;-1.554;2023-04-03T11:18:37;101966.34;;;9.54;68.50
46464;BME280;32161;48.148;-1.554;2023-04-03T11:21:14;101961.16;;;9.60;67.24
46464;BME280;32161;48.148;-1.554;2023-04-03T11:23:45;101960.97;;;9.83;68.19
46464;BME280;32161;48.148;-1.554;2023-04-03T11:26:17;101962.25;;;10.08;66.41
46464;BME280;32161;48.148;-1.554;2023-04-03T11:28:47;101947.84;;;10.14;66.56
46464;BME280;32161;48.148;-1.554;2023-04-03T11:31:38;101950.94;;;10.33;65.94
46464;BME280;32161;48.148;-1.554;2023-04-03T11:34:23;101948.28;;;10.39;66.53
46464;BME280;32161;48.148;-1.554;2023-04-03T11:36:58;101949.63;;;10.57;64.36
46464;BME280;32161;48.148;-1.554;2023-04-03T11:39:29;101943.16;;;10.58;65.34
46464;BME280;32161;48.148;-1.554;2023-04-03T11:42:14;101937.06;;;10.56;65.18
46464;BME280;32161;48.148;-1.554;2023-04-03T11:44:43;101940.66;;;10.63;65.27
46464;BME280;32161;48.148;-1.554;2023-04-03T11:47:11;101938.38;;;10.66;65.32
46464;BME280;32161;48.148;-1.554;2023-04-03T11:49:59;101935.09;;;10.78;64.85
46464;BME280;32161;48.148;-1.554;2023-04-03T11:52:59;101930.66;;;10.70;64.95
46464;BME280;32161;48.148;-1.554;2023-04-03T11:56:00;101924.41;;;10.76;64.35
46464;BME280;32161;48.148;-1.554;2023-04-03T11:58:31;101918.97;;;10.76;66.56
46464;BME280;32161;48.148;-1.554;2023-04-03T12:01:08;101914.81;;;10.80;65.10
46464;BME280;32161;48.148;-1.554;2023-04-03T12:04:08;101917.00;;;11.05;63.41
46464;BME280;32161;48.148;-1.554;2023-04-03T12:07:13;101908.19;;;11.03;63.95
46464;BME280;32161;48.148;-1.554;2023-04-03T12:10:17;101908.84;;;11.05;63.96
46464;BME280;32161;48.148;-1.554;2023-04-03T12:12:58;101901.97;;;11.15;65.34
46464;BME280;32161;48.148;-1.554;2023-04-03T12:15:54;101903.41;;;11.18;64.81
46464;BME280;32161;48.148;-1.554;2023-04-03T12:18:57;101895.06;;;11.26;63.60
46464;BME280;32161;48.148;-1.554;2023-04-03T12:22:07;101894.00;;;11.34;65.63
46464;BME280;32161;48.148;-1.554;2023-04-03T12:24:37;101889.44;;;11.47;65.00
46464;BME280;32161;48.148;-1.554;2023-04-03T12:27:38;101886.09;;;11.59;64.76
46464;BME280;32161;48.148;-1.554;2023-04-03T12:30:19;101885.66;;;11.75;65.57
46464;BME280;32161;48.148;-1.554;2023-04-03T12:33:23;101877.09;;;11.91;65.90
46464;BME280;32161;48.148;-1.554;2023-04-03T12:36:06;101885.69;;;12.15;62.77
46464;BME280;32161;48.148;-1.554;2023-04-03T12:38:58;101871.00;;;12.16;61.30
46464;BME280;32161;48.148;-1.554;2023-04-03T12:41:37;101862.16;;;12.14;63.13
46464;BME280;32161;48.148;-1.554;2023-04-03T12:44:38;101853.50;;;12.37;61.91
46464;BME280;32161;48.148;-1.554;2023-04-03T12:47:19;101860.44;;;12.33;63.97
46464;BME280;32161;48.148;-1.554;2023-04-03T12:49:50;101858.94;;;12.43;63.93
46464;BME280;32161;48.148;-1.554;2023-04-03T12:52:26;101856.63;;;12.54;61.43
46464;BME280;32161;48.148;-1.554;2023-04-03T12:54:57;101853.66;;;12.55;61.94
46464;BME280;32161;48.148;-1.554;2023-04-03T12:57:26;101858.94;;;12.43;65.03
46464;BME280;32161;48.148;-1.554;2023-04-03T12:59:56;101844.81;;;12.60;62.23
46464;BME280;32161;48.148;-1.554;2023-04-03T13:02:26;101844.00;;;12.59;64.40
46464;BME280;32161;48.148;-1.554;2023-04-03T13:04:57;101835.78;;;12.66;61.68
46464;BME280;32161;48.148;-1.554;2023-04-03T13:07:29;101833.66;;;12.68;64.36
46464;BME280;32161;48.148;-1.554;2023-04-03T13:10:09;101838.03;;;12.76;62.03
46464;BME280;32161;48.148;-1.554;2023-04-03T13:12:49;101832.47;;;12.95;61.66
46464;BME280;32161;48.148;-1.554;2023-04-03T13:15:21;101827.34;;;13.06;62.78